sensor_id;sensor_type;location;lat;lon;timestamp;pressure;altitude;pressure_sealevel;temperature;humidity
49044;BME280;34860;48.066;14.124;2023-08-12T00:01:07;97162.38;;;18.95;56.65
49044;BME280;34860;48.066;14.124;2023-08-12T00:03:55;97164.63;;;18.91;56.73
49044;BME280;34860;48.066;14.124;2023-08-12T00:06:43;97160.44;;;18.86;56.68
49044;BME280;34860;48.066;14.124;2023-08-12T00:09:31;97166.06;;;18.86;56.86
49044;BME280;34860;48.066;14.124;2023-08-12T00:12:20;97146.19;;;18.81;56.70
49044;BME280;34860;48.066;14.124;2023-08-12T00:15:09;97150.78;;;18.78;56.76
49044;BME280;34860;48.066;14.124;2023-08-12T00:17:57;97158.59;;;18.74;56.94
49044;BME280;34860;48.066;14.124;2023-08-12T00:20:45;97159.09;;;18.73;56.74
49044;BME280;34860;48.066;14.124;2023-08-12T00:23:37;97146.44;;;18.68;56.91
49044;BME280;34860;48.066;14.124;2023-08-12T00:26:26;97155.09;;;18.64;56.89
49044;BME280;34860;48.066;14.124;2023-08-12T00:29:15;97138.38;;;18.61;57.11
49044;BME280;34860;48.066;14.124;2023-08-12T00:32:04;97145.72;;;18.58;56.93
49044;BME280;34860;48.066;14.124;2023-08-12T00:34:52;97144.34;;;18.54;56.98
49044;BME280;34860;48.066;14.124;2023-08-12T00:37:40;97136.09;;;18.50;56.93
49044;BME280;34860;48.066;14.124;2023-08-12T00:40:28;97144.72;;;18.46;57.16
49044;BME280;34860;48.066;14.124;2023-08-12T00:43:16;97132.84;;;18.42;57.06
49044;BME280;34860;48.066;14.124;2023-08-12T00:46:06;97131.00;;;18.39;57.24
49044;BME280;34860;48.066;14.124;2023-08-12T00:48:54;97127.59;;;18.35;57.22
49044;BME280;34860;48.066;14.124;2023-08-12T00:51:44;97131.38;;;18.32;57.15
49044;BME280;34860;48.066;14.124;2023-08-12T00:54:33;97128.72;;;18.28;57.52
49044;BME280;34860;48.066;14.124;2023-08-12T00:57:21;97117.66;;;18.25;57.35
49044;BME280;34860;48.066;14.124;2023-08-12T01:00:10;97122.97;;;18.23;57.38
49044;BME280;34860;48.066;14.124;2023-08-12T01:03:00;97120.66;;;18.21;57.48
49044;BME280;34860;48.066;14.124;2023-08-12T01:05:48;97125.97;;;18.19;57.43
49044;BME280;34860;48.066;14.124;2023-08-12T01:08:38;97113.63;;;18.17;57.51
49044;BME280;34860;48.066;14.124;2023-08-12T01:11:31;97114.41;;;18.17;57.65
49044;BME280;34860;48.066;14.124;2023-08-12T01:14:27;97108.19;;;18.13;57.69
49044;BME280;34860;48.066;14.124;2023-08-12T01:17:16;97107.91;;;18.11;57.52
49044;BME280;34860;48.066;14.124;2023-08-12T01:20:08;97100.41;;;18.08;57.47
49044;BME280;34860;48.066;14.124;2023-08-12T01:23:08;97097.75;;;18.04;57.79
49044;BME280;34860;48.066;14.124;2023-08-12T01:25:57;97102.31;;;18.02;57.66
49044;BME280;34860;48.066;14.124;2023-08-12T01:28:46;97102.47;;;17.98;57.73
49044;BME280;34860;48.066;14.124;2023-08-12T01:31:42;97088.59;;;17.94;57.72
49044;BME280;34860;48.066;14.124;2023-08-12T01:34:38;97089.53;;;17.91;57.90
49044;BME280;34860;48.066;14.124;2023-08-12T01:37:28;97095.34;;;17.88;57.92
49044;BME280;34860;48.066;14.124;2023-08-12T01:40:19;97101.41;;;17.86;57.98
49044;BME280;34860;48.066;14.124;2023-08-12T01:43:08;97101.88;;;17.85;57.96
49044;BME280;34860;48.066;14.124;2023-08-12T01:45:56;97097.97;;;17.82;58.08
49044;BME280;34860;48.066;14.124;2023-08-12T01:48:44;97099.25;;;17.81;58.07
49044;BME280;34860;48.066;14.124;2023-08-12T01:51:32;97091.00;;;17.77;58.10
49044;BME280;34860;48.066;14.124;2023-08-12T01:54:21;97088.66;;;17.76;58.12
49044;BME280;34860;48.066;14.124;2023-08-12T01:57:11;97091.47;;;17.76;57.95
49044;BME280;34860;48.066;14.124;2023-08-12T02:00:00;97088.34;;;17.74;58.14
49044;BME280;34860;48.066;14.124;2023-08-12T02:03:02;97093.66;;;17.72;58.25
49044;BME280;34860;48.066;14.124;2023-08-12T02:05:50;97096.00;;;17.73;58.10
49044;BME280;34860;48.066;14.124;2023-08-12T02:08:38;97094.13;;;17.70;58.23
49044;BME280;34860;48.066;14.124;2023-08-12T02:11:26;97096.66;;;17.68;58.07
49044;BME280;34860;48.066;14.124;2023-08-12T02:14:16;97093.03;;;17.68;58.05
49044;BME280;34860;48.066;14.124;2023-08-12T02:17:04;97089.16;;;17.65;58.21
49044;BME280;34860;48.066;14.124;2023-08-12T02:19:52;97093.22;;;17.64;58.24
49044;BME280;34860;48.066;14.124;2023-08-12T02:22:40;97088.41;;;17.65;58.30
49044;BME280;34860;48.066;14.124;2023-08-12T02:25:29;97079.66;;;17.63;58.44
49044;BME280;34860;48.066;14.124;2023-08-12T02:28:18;97080.59;;;17.59;58.44
49044;BME280;34860;48.066;14.124;2023-08-12T02:31:08;97071.09;;;17.57;58.46
49044;BME280;34860;48.066;14.124;2023-08-12T02:33:56;97074.06;;;17.53;58.49
49044;BME280;34860;48.066;14.124;2023-08-12T02:36:44;97073.00;;;17.51;58.69
49044;BME280;34860;48.066;14.124;2023-08-12T02:39:32;97063.63;;;17.45;58.75
49044;BME280;34860;48.066;14.124;2023-08-12T02:42:20;97064.59;;;17.41;58.80
49044;BME280;34860;48.066;14.124;2023-08-12T02:45:08;97058.81;;;17.36;59.04
49044;BME280;34860;48.066;14.124;2023-08-12T02:47:58;97049.78;;;17.32;58.89
49044;BME280;34860;48.066;14.124;2023-08-12T02:50:46;97046.34;;;17.28;59.05
49044;BME280;34860;48.066;14.124;2023-08-12T02:53:34;97051.38;;;17.23;59.07
49044;BME280;34860;48.066;14.124;2023-08-12T02:56:22;97054.66;;;17.22;58.97
49044;BME280;34860;48.066;14.124;2023-08-12T02:59:10;97056.84;;;17.18;59.28
49044;BME280;34860;48.066;14.124;2023-08-12T03:01:58;97049.06;;;17.13;59.22
49044;BME280;34860;48.066;14.124;2023-08-12T03:04:48;97050.00;;;17.10;59.13
49044;BME280;34860;48.066;14.124;2023-08-12T03:07:36;97052.97;;;17.06;59.49
49044;BME280;34860;48.066;14.124;2023-08-12T03:10:24;97046.28;;;17.03;59.56
49044;BME280;34860;48.066;14.124;2023-08-12T03:13:12;97049.56;;;17.02;59.30
49044;BME280;34860;48.066;14.124;2023-08-12T03:16:01;97043.63;;;17.00;59.28
49044;BME280;34860;48.066;14.124;2023-08-12T03:18:50;97053.31;;;16.99;59.49
49044;BME280;34860;48.066;14.124;2023-08-12T03:21:40;97044.56;;;16.97;59.57
49044;BME280;34860;48.066;14.124;2023-08-12T03:24:27;97049.88;;;16.95;59.45
49044;BME280;34860;48.066;14.124;2023-08-12T03:27:16;97044.28;;;16.95;59.56
49044;BME280;34860;48.066;14.124;2023-08-12T03:30:06;97044.75;;;16.93;59.54
49044;BME280;34860;48.066;14.124;2023-08-12T03:32:55;97043.66;;;16.91;59.59
49044;BME280;34860;48.066;14.124;2023-08-12T03:35:46;97048.50;;;16.90;59.40
49044;BME280;34860;48.066;14.124;2023-08-12T03:38:36;97048.16;;;16.88;59.54
49044;BME280;34860;48.066;14.124;2023-08-12T03:41:25;97051.78;;;16.88;59.30
49044;BME280;34860;48.066;14.124;2023-08-12T03:44:16;97046.28;;;16.85;59.37
49044;BME280;34860;48.066;14.124;2023-08-12T03:47:04;97041.91;;;16.84;59.57
49044;BME280;34860;48.066;14.124;2023-08-12T03:49:55;97040.03;;;16.81;59.63
49044;BME280;34860;48.066;14.124;2023-08-12T03:52:43;97046.13;;;16.79;59.49
49044;BME280;34860;48.066;14.124;2023-08-12T03:55:34;97047.69;;;16.80;59.68
49044;BME280;34860;48.066;14.124;2023-08-12T03:58:22;97042.22;;;16.77;59.70
49044;BME280;34860;48.066;14.124;2023-08-12T04:01:10;97042.69;;;16.75;59.55
49044;BME280;34860;48.066;14.124;2023-08-12T04:03:58;97032.72;;;16.74;59.54
49044;BME280;34860;48.066;14.124;2023-08-12T04:06:46;97041.63;;;16.73;59.66
49044;BME280;34860;48.066;14.124;2023-08-12T04:09:38;97042.09;;;16.71;59.66
49044;BME280;34860;48.066;14.124;2023-08-12T04:12:27;97037.41;;;16.68;59.73
49044;BME280;34860;48.066;14.124;2023-08-12T04:15:15;97041.47;;;16.67;59.70
49044;BME280;34860;48.066;14.124;2023-08-12T04:18:04;97029.94;;;16.65;59.55
49044;BME280;34860;48.066;14.124;2023-08-12T04:20:53;97046.00;;;16.64;59.62
49044;BME280;34860;48.066;14.124;2023-08-12T04:23:42;97040.38;;;16.64;59.76
49044;BME280;34860;48.066;14.124;2023-08-12T04:26:30;97054.09;;;16.62;59.67
49044;BME280;34860;48.066;14.124;2023-08-12T04:29:20;97051.75;;;16.61;59.55
49044;BME280;34860;48.066;14.124;2023-08-12T04:32:08;97055.81;;;16.60;59.85
49044;BME280;34860;48.066;14.124;2023-08-12T04:34:56;97051.44;;;16.59;59.71
49044;BME280;34860;48.066;14.124;2023-08-12T04:37:45;97052.69;;;16.58;59.61
49044;BME280;34860;48.066;14.124;2023-08-12T04:40:33;97055.03;;;16.59;59.61
49044;BME280;34860;48.066;14.124;2023-08-12T04:43:21;97055.19;;;16.56;59.66
49044;BME280;34860;48.066;14.124;2023-08-12T04:46:10;97044.44;;;16.54;59.81
49044;BME280;34860;48.066;14.124;2023-08-12T04:48:59;97046.47;;;16.53;59.53
49044;BME280;34860;48.066;14.124;2023-08-12T04:51:47;97047.69;;;16.52;59.72
49044;BME280;34860;48.066;14.124;2023-08-12T04:54:35;97046.94;;;16.52;59.76
49044;BME280;34860;48.066;14.124;2023-08-12T04:57:23;97042.88;;;16.53;59.74
49044;BME280;34860;48.066;14.124;2023-08-12T05:00:12;97038.81;;;16.54;59.81
49044;BME280;34860;48.066;14.124;2023-08-12T05:03:02;97036.00;;;16.54;59.81
49044;BME280;34860;48.066;14.124;2023-08-12T05:05:51;97039.63;;;16.55;59.96
49044;BME280;34860;48.066;14.124;2023-08-12T05:08:43;97029.94;;;16.56;59.83
49044;BME280;34860;48.066;14.124;2023-08-12T05:11:32;97028.22;;;16.58;59.75
49044;BME280;34860;48.066;14.124;2023-08-12T05:14:20;97031.34;;;16.60;59.84
49044;BME280;34860;48.066;14.124;2023-08-12T05:17:08;97027.28;;;16.61;59.82
49044;BME280;34860;48.066;14.124;2023-08-12T05:19:58;97026.34;;;16.64;60.23
49044;BME280;34860;48.066;14.124;2023-08-12T05:22:46;97015.44;;;16.66;60.18
49044;BME280;34860;48.066;14.124;2023-08-12T05:25:34;97023.03;;;16.75;59.90
49044;BME280;34860;48.066;14.124;2023-08-12T05:28:23;97018.53;;;16.78;60.02
49044;BME280;34860;48.066;14.124;2023-08-12T05:31:11;97018.56;;;16.87;59.91
49044;BME280;34860;48.066;14.124;2023-08-12T05:33:59;97024.63;;;16.95;59.90
49044;BME280;34860;48.066;14.124;2023-08-12T05:36:48;97017.72;;;17.05;59.93
49044;BME280;34860;48.066;14.124;2023-08-12T05:39:36;97022.38;;;17.17;59.98
49044;BME280;34860;48.066;14.124;2023-08-12T05:42:24;97029.34;;;17.31;59.93
49044;BME280;34860;48.066;14.124;2023-08-12T05:45:12;97033.50;;;17.45;59.75
49044;BME280;34860;48.066;14.124;2023-08-12T05:48:00;97026.13;;;17.57;60.02
49044;BME280;34860;48.066;14.124;2023-08-12T05:50:48;97027.91;;;17.69;59.92
49044;BME280;34860;48.066;14.124;2023-08-12T05:53:37;97026.94;;;17.82;59.80
49044;BME280;34860;48.066;14.124;2023-08-12T05:56:26;97019.72;;;17.90;59.69
49044;BME280;34860;48.066;14.124;2023-08-12T05:59:14;97026.53;;;17.98;59.84
49044;BME280;34860;48.066;14.124;2023-08-12T06:02:02;97024.16;;;18.06;59.73
49044;BME280;34860;48.066;14.124;2023-08-12T06:04:50;97027.88;;;18.12;59.93
49044;BME280;34860;48.066;14.124;2023-08-12T06:07:38;97026.72;;;18.19;59.62
49044;BME280;34860;48.066;14.124;2023-08-12T06:10:27;97025.28;;;18.23;59.73
49044;BME280;34860;48.066;14.124;2023-08-12T06:13:15;97027.13;;;18.26;59.89
49044;BME280;34860;48.066;14.124;2023-08-12T06:16:04;97018.41;;;18.24;59.75
49044;BME280;34860;48.066;14.124;2023-08-12T06:18:52;97012.31;;;18.26;59.71
49044;BME280;34860;48.066;14.124;2023-08-12T06:21:40;97009.00;;;18.27;59.95
49044;BME280;34860;48.066;14.124;2023-08-12T06:24:28;97017.44;;;18.27;59.77
49044;BME280;34860;48.066;14.124;2023-08-12T06:27:18;97012.09;;;18.29;59.90
49044;BME280;34860;48.066;14.124;2023-08-12T06:30:08;97015.53;;;18.33;59.98
49044;BME280;34860;48.066;14.124;2023-08-12T06:32:56;97019.41;;;18.36;59.92
49044;BME280;34860;48.066;14.124;2023-08-12T06:35:45;97013.28;;;18.38;59.79
49044;BME280;34860;48.066;14.124;2023-08-12T06:38:34;97008.75;;;18.40;59.82
49044;BME280;34860;48.066;14.124;2023-08-12T06:41:22;97013.41;;;18.43;59.83
49044;BME280;34860;48.066;14.124;2023-08-12T06:44:12;97016.03;;;18.47;59.73
49044;BME280;34860;48.066;14.124;2023-08-12T06:47:00;97020.69;;;18.50;59.76
49044;BME280;34860;48.066;14.124;2023-08-12T06:49:48;97008.47;;;18.53;59.84
49044;BME280;34860;48.066;14.124;2023-08-12T06:52:38;97007.81;;;18.58;59.77
49044;BME280;34860;48.066;14.124;2023-08-12T06:55:26;97012.47;;;18.61;59.75
49044;BME280;34860;48.066;14.124;2023-08-12T06:58:15;97011.22;;;18.62;59.63
49044;BME280;34860;48.066;14.124;2023-08-12T07:01:06;97009.47;;;18.65;59.69
49044;BME280;34860;48.066;14.124;2023-08-12T07:03:54;97012.09;;;18.68;59.71
49044;BME280;34860;48.066;14.124;2023-08-12T07:06:42;97007.84;;;18.73;59.83
49044;BME280;34860;48.066;14.124;2023-08-12T07:09:30;96999.97;;;18.77;59.73
49044;BME280;34860;48.066;14.124;2023-08-12T07:12:18;97005.41;;;18.81;59.58
49044;BME280;34860;48.066;14.124;2023-08-12T07:15:07;96999.91;;;18.86;59.62
49044;BME280;34860;48.066;14.124;2023-08-12T07:18:00;96997.66;;;18.91;59.72
49044;BME280;34860;48.066;14.124;2023-08-12T07:20:50;96995.22;;;18.98;59.43
49044;BME280;34860;48.066;14.124;2023-08-12T07:23:38;97001.47;;;19.02;59.70
49044;BME280;34860;48.066;14.124;2023-08-12T07:26:27;96999.81;;;19.11;59.52
49044;BME280;34860;48.066;14.124;2023-08-12T07:29:15;97001.94;;;19.16;59.67
49044;BME280;34860;48.066;14.124;2023-08-12T07:32:04;96995.13;;;19.22;59.54
49044;BME280;34860;48.066;14.124;2023-08-12T07:34:54;97001.63;;;19.29;59.46
49044;BME280;34860;48.066;14.124;2023-08-12T07:37:42;96999.69;;;19.35;59.44
49044;BME280;34860;48.066;14.124;2023-08-12T07:40:30;96994.13;;;19.40;59.53
49044;BME280;34860;48.066;14.124;2023-08-12T07:43:18;96994.22;;;19.46;59.57
49044;BME280;34860;48.066;14.124;2023-08-12T07:46:06;96995.84;;;19.53;59.39
49044;BME280;34860;48.066;14.124;2023-08-12T07:48:55;96988.25;;;19.59;59.51
49044;BME280;34860;48.066;14.124;2023-08-12T07:51:44;96989.09;;;19.65;59.39
49044;BME280;34860;48.066;14.124;2023-08-12T07:54:32;96988.72;;;19.72;59.48
49044;BME280;34860;48.066;14.124;2023-08-12T07:57:20;96989.09;;;19.80;59.29
49044;BME280;34860;48.066;14.124;2023-08-12T08:00:11;96978.66;;;19.86;59.50
49044;BME280;34860;48.066;14.124;2023-08-12T08:02:59;96975.16;;;19.91;59.36
49044;BME280;34860;48.066;14.124;2023-08-12T08:05:47;96993.22;;;20.00;59.34
49044;BME280;34860;48.066;14.124;2023-08-12T08:08:37;96983.28;;;20.04;59.69
49044;BME280;34860;48.066;14.124;2023-08-12T08:11:25;96986.16;;;20.10;59.30
49044;BME280;34860;48.066;14.124;2023-08-12T08:14:13;96979.28;;;20.17;59.37
49044;BME280;34860;48.066;14.124;2023-08-12T08:17:01;96979.38;;;20.22;59.26
49044;BME280;34860;48.066;14.124;2023-08-12T08:19:50;96974.56;;;20.28;59.32
49044;BME280;34860;48.066;14.124;2023-08-12T08:22:38;96979.28;;;20.37;59.25
49044;BME280;34860;48.066;14.124;2023-08-12T08:25:27;96975.53;;;20.46;59.23
49044;BME280;34860;48.066;14.124;2023-08-12T08:28:15;96977.16;;;20.53;58.96
49044;BME280;34860;48.066;14.124;2023-08-12T08:31:04;96973.88;;;20.60;58.91
49044;BME280;34860;48.066;14.124;2023-08-12T08:33:52;96973.97;;;20.65;58.92
49044;BME280;34860;48.066;14.124;2023-08-12T08:36:40;96972.25;;;20.74;58.88
49044;BME280;34860;48.066;14.124;2023-08-12T08:39:28;96971.81;;;20.81;58.93
49044;BME280;34860;48.066;14.124;2023-08-12T08:42:20;96974.19;;;20.88;58.82
49044;BME280;34860;48.066;14.124;2023-08-12T08:45:12;96961.66;;;20.95;58.90
49044;BME280;34860;48.066;14.124;2023-08-12T08:48:05;96964.81;;;21.02;58.74
49044;BME280;34860;48.066;14.124;2023-08-12T08:50:54;96964.63;;;21.12;58.78
49044;BME280;34860;48.066;14.124;2023-08-12T08:53:43;96971.13;;;21.18;58.86
49044;BME280;34860;48.066;14.124;2023-08-12T08:56:32;96960.13;;;21.26;58.81
49044;BME280;34860;48.066;14.124;2023-08-12T08:59:21;96958.88;;;21.32;58.76
49044;BME280;34860;48.066;14.124;2023-08-12T09:02:13;96959.19;;;21.40;58.80
49044;BME280;34860;48.066;14.124;2023-08-12T09:05:04;96956.97;;;21.50;58.64
49044;BME280;34860;48.066;14.124;2023-08-12T09:07:54;96956.50;;;21.57;58.60
49044;BME280;34860;48.066;14.124;2023-08-12T09:10:43;96958.38;;;21.66;58.62
49044;BME280;34860;48.066;14.124;2023-08-12T09:13:33;96957.38;;;21.74;58.59
49044;BME280;34860;48.066;14.124;2023-08-12T09:16:23;96955.34;;;21.81;58.83
49044;BME280;34860;48.066;14.124;2023-08-12T09:19:12;96954.88;;;21.88;58.53
49044;BME280;34860;48.066;14.124;2023-08-12T09:22:00;96958.00;;;21.95;58.42
49044;BME280;34860;48.066;14.124;2023-08-12T09:24:50;96956.25;;;22.04;58.50
49044;BME280;34860;48.066;14.124;2023-08-12T09:27:38;96955.75;;;22.11;58.30
49044;BME280;34860;48.066;14.124;2023-08-12T09:30:28;96955.28;;;22.18;58.40
49044;BME280;34860;48.066;14.124;2023-08-12T09:33:24;96956.84;;;22.25;58.55
49044;BME280;34860;48.066;14.124;2023-08-12T09:36:13;96957.91;;;22.33;58.41
49044;BME280;34860;48.066;14.124;2023-08-12T09:39:05;96956.66;;;22.40;58.31
49044;BME280;34860;48.066;14.124;2023-08-12T09:41:53;96958.22;;;22.46;58.29
49044;BME280;34860;48.066;14.124;2023-08-12T09:44:42;96952.56;;;22.52;58.47
49044;BME280;34860;48.066;14.124;2023-08-12T09:47:33;96946.41;;;22.59;58.21
49044;BME280;34860;48.066;14.124;2023-08-12T09:50:23;96940.75;;;22.65;58.42
49044;BME280;34860;48.066;14.124;2023-08-12T09:53:12;96950.78;;;22.72;58.16
49044;BME280;34860;48.066;14.124;2023-08-12T09:56:03;96950.03;;;22.77;58.22
49044;BME280;34860;48.066;14.124;2023-08-12T09:58:53;96940.00;;;22.81;58.38
49044;BME280;34860;48.066;14.124;2023-08-12T10:01:43;96945.41;;;22.91;58.30
49044;BME280;34860;48.066;14.124;2023-08-12T10:04:36;96940.00;;;22.98;58.17
49044;BME280;34860;48.066;14.124;2023-08-12T10:07:28;96931.00;;;23.06;58.08
49044;BME280;34860;48.066;14.124;2023-08-12T10:10:16;96932.06;;;23.14;58.08
49044;BME280;34860;48.066;14.124;2023-08-12T10:13:05;96933.06;;;23.22;57.76
49044;BME280;34860;48.066;14.124;2023-08-12T10:15:54;96935.38;;;23.29;57.63
49044;BME280;34860;48.066;14.124;2023-08-12T10:18:42;96925.09;;;23.37;57.83
49044;BME280;34860;48.066;14.124;2023-08-12T10:21:34;96934.09;;;23.47;57.79
49044;BME280;34860;48.066;14.124;2023-08-12T10:24:26;96924.78;;;23.52;57.56
49044;BME280;34860;48.066;14.124;2023-08-12T10:27:14;96938.69;;;23.62;57.58
49044;BME280;34860;48.066;14.124;2023-08-12T10:30:04;96939.72;;;23.70;57.61
49044;BME280;34860;48.066;14.124;2023-08-12T10:32:52;96932.97;;;23.79;57.63
49044;BME280;34860;48.066;14.124;2023-08-12T10:35:42;96936.84;;;23.87;57.28
49044;BME280;34860;48.066;14.124;2023-08-12T10:38:31;96931.38;;;23.94;57.56
49044;BME280;34860;48.066;14.124;2023-08-12T10:41:22;96924.91;;;24.05;57.27
49044;BME280;34860;48.066;14.124;2023-08-12T10:44:10;96928.72;;;24.14;57.07
49044;BME280;34860;48.066;14.124;2023-08-12T10:46:58;96921.47;;;24.24;57.16
49044;BME280;34860;48.066;14.124;2023-08-12T10:49:48;96916.25;;;24.34;57.20
49044;BME280;34860;48.066;14.124;2023-08-12T10:52:36;96916.47;;;24.41;57.32
49044;BME280;34860;48.066;14.124;2023-08-12T10:55:25;96908.94;;;24.50;57.24
49044;BME280;34860;48.066;14.124;2023-08-12T10:58:26;96913.53;;;24.58;57.08
49044;BME280;34860;48.066;14.124;2023-08-12T11:01:17;96901.84;;;24.68;57.13
49044;BME280;34860;48.066;14.124;2023-08-12T11:04:16;96904.09;;;24.80;56.87
49044;BME280;34860;48.066;14.124;2023-08-12T11:07:14;96895.22;;;24.90;56.97
49044;BME280;34860;48.066;14.124;2023-08-12T11:10:10;96907.56;;;24.98;56.57
49044;BME280;34860;48.066;14.124;2023-08-12T11:12:59;96905.94;;;25.08;56.57
49044;BME280;34860;48.066;14.124;2023-08-12T11:15:49;96898.38;;;25.16;56.84
49044;BME280;34860;48.066;14.124;2023-08-12T11:18:37;96906.00;;;25.27;56.51
49044;BME280;34860;48.066;14.124;2023-08-12T11:21:25;96899.72;;;25.40;56.58
49044;BME280;34860;48.066;14.124;2023-08-12T11:24:15;96894.69;;;25.52;56.33
49044;BME280;34860;48.066;14.124;2023-08-12T11:27:04;96896.34;;;25.66;56.38
49044;BME280;34860;48.066;14.124;2023-08-12T11:29:52;96898.53;;;25.79;56.14
49044;BME280;34860;48.066;14.124;2023-08-12T11:32:42;96891.41;;;25.91;56.18
49044;BME280;34860;48.066;14.124;2023-08-12T11:35:30;96888.66;;;26.05;56.18
49044;BME280;34860;48.066;14.124;2023-08-12T11:38:18;96873.72;;;26.18;55.89
49044;BME280;34860;48.066;14.124;2023-08-12T11:41:06;96876.13;;;26.33;55.73
49044;BME280;34860;48.066;14.124;2023-08-12T11:43:55;96872.25;;;26.49;55.63
49044;BME280;34860;48.066;14.124;2023-08-12T11:46:43;96874.63;;;26.64;55.80
49044;BME280;34860;48.066;14.124;2023-08-12T11:49:32;96876.69;;;26.82;55.45
49044;BME280;34860;48.066;14.124;2023-08-12T11:52:20;96877.75;;;26.98;55.49
49044;BME280;34860;48.066;14.124;2023-08-12T11:55:09;96876.66;;;27.15;55.34
49044;BME280;34860;48.066;14.124;2023-08-12T11:57:58;96868.59;;;27.32;55.27
49044;BME280;34860;48.066;14.124;2023-08-12T12:00:46;96862.06;;;27.51;55.22
49044;BME280;34860;48.066;14.124;2023-08-12T12:03:35;96873.56;;;27.72;55.08
49044;BME280;34860;48.066;14.124;2023-08-12T12:06:31;96867.19;;;27.93;54.86
49044;BME280;34860;48.066;14.124;2023-08-12T12:09:20;96865.19;;;28.14;54.39
49044;BME280;34860;48.066;14.124;2023-08-12T12:12:09;96869.09;;;28.38;54.24
49044;BME280;34860;48.066;14.124;2023-08-12T12:14:57;96871.69;;;28.62;54.27
49044;BME280;34860;48.066;14.124;2023-08-12T12:17:46;96863.88;;;28.84;54.00
49044;BME280;34860;48.066;14.124;2023-08-12T12:20:34;96861.25;;;29.07;53.71
49044;BME280;34860;48.066;14.124;2023-08-12T12:23:27;96857.81;;;29.30;53.47
49044;BME280;34860;48.066;14.124;2023-08-12T12:26:15;96862.19;;;29.52;53.16
49044;BME280;34860;48.066;14.124;2023-08-12T12:29:04;96859.44;;;29.75;53.28
49044;BME280;34860;48.066;14.124;2023-08-12T12:31:52;96867.41;;;29.98;53.36
49044;BME280;34860;48.066;14.124;2023-08-12T12:34:40;96859.50;;;30.19;53.12
49044;BME280;34860;48.066;14.124;2023-08-12T12:37:28;96866.69;;;30.41;52.81
49044;BME280;34860;48.066;14.124;2023-08-12T12:40:17;96853.75;;;30.64;52.58
49044;BME280;34860;48.066;14.124;2023-08-12T12:43:06;96856.44;;;30.85;52.49
49044;BME280;34860;48.066;14.124;2023-08-12T12:45:55;96865.66;;;31.06;52.14
49044;BME280;34860;48.066;14.124;2023-08-12T12:48:43;96864.53;;;31.32;51.93
49044;BME280;34860;48.066;14.124;2023-08-12T12:51:31;96860.72;;;31.53;51.75
49044;BME280;34860;48.066;14.124;2023-08-12T12:54:19;96865.81;;;31.78;51.45
49044;BME280;34860;48.066;14.124;2023-08-12T12:57:09;96860.78;;;32.01;51.02
49044;BME280;34860;48.066;14.124;2023-08-12T12:59:57;96863.38;;;32.30;50.20
49044;BME280;34860;48.066;14.124;2023-08-12T13:02:45;96866.50;;;32.57;49.68
49044;BME280;34860;48.066;14.124;2023-08-12T13:05:33;96866.59;;;32.75;49.78
49044;BME280;34860;48.066;14.124;2023-08-12T13:08:21;96864.81;;;32.87;49.08
49044;BME280;34860;48.066;14.124;2023-08-12T13:11:09;96859.34;;;32.99;48.95
49044;BME280;34860;48.066;14.124;2023-08-12T13:13:58;96844.72;;;33.05;48.79
49044;BME280;34860;48.066;14.124;2023-08-12T13:16:46;96855.06;;;33.08;48.85
49044;BME280;34860;48.066;14.124;2023-08-12T13:19:34;96852.34;;;33.10;49.42
49044;BME280;34860;48.066;14.124;2023-08-12T13:22:22;96850.41;;;33.12;49.25
49044;BME280;34860;48.066;14.124;2023-08-12T13:25:10;96847.88;;;33.17;49.05
49044;BME280;34860;48.066;14.124;2023-08-12T13:27:59;96839.19;;;33.24;49.38
49044;BME280;34860;48.066;14.124;2023-08-12T13:30:48;96828.53;;;33.35;49.11
49044;BME280;34860;48.066;14.124;2023-08-12T13:33:37;96839.75;;;33.48;48.79
49044;BME280;34860;48.066;14.124;2023-08-12T13:36:25;96829.28;;;33.60;48.20
49044;BME280;34860;48.066;14.124;2023-08-12T13:39:13;96831.31;;;33.85;48.21
49044;BME280;34860;48.066;14.124;2023-08-12T13:42:01;96832.91;;;34.13;47.66
49044;BME280;34860;48.066;14.124;2023-08-12T13:44:49;96820.59;;;34.30;47.01
49044;BME280;34860;48.066;14.124;2023-08-12T13:47:38;96810.53;;;34.49;47.08
49044;BME280;34860;48.066;14.124;2023-08-12T13:50:27;96813.38;;;34.66;46.94
49044;BME280;34860;48.066;14.124;2023-08-12T13:53:15;96811.94;;;34.85;47.27
49044;BME280;34860;48.066;14.124;2023-08-12T13:56:03;96811.44;;;35.06;47.04
49044;BME280;34860;48.066;14.124;2023-08-12T13:58:51;96805.38;;;35.21;46.67
49044;BME280;34860;48.066;14.124;2023-08-12T14:01:39;96812.59;;;35.40;46.71
49044;BME280;34860;48.066;14.124;2023-08-12T14:04:29;96796.50;;;35.56;46.56
49044;BME280;34860;48.066;14.124;2023-08-12T14:07:17;96807.00;;;35.71;46.16
49044;BME280;34860;48.066;14.124;2023-08-12T14:10:08;96805.38;;;35.88;46.14
49044;BME280;34860;48.066;14.124;2023-08-12T14:12:56;96798.06;;;36.06;46.08
49044;BME280;34860;48.066;14.124;2023-08-12T14:15:44;96795.91;;;36.26;45.64
49044;BME280;34860;48.066;14.124;2023-08-12T14:18:32;96799.09;;;36.40;45.38
49044;BME280;34860;48.066;14.124;2023-08-12T14:21:22;96786.72;;;36.49;45.34
49044;BME280;34860;48.066;14.124;2023-08-12T14:24:11;96802.66;;;36.60;45.37
49044;BME280;34860;48.066;14.124;2023-08-12T14:26:59;96804.03;;;36.69;45.16
49044;BME280;34860;48.066;14.124;2023-08-12T14:29:47;96803.56;;;36.72;44.81
49044;BME280;34860;48.066;14.124;2023-08-12T14:32:35;96801.75;;;36.67;44.76
49044;BME280;34860;48.066;14.124;2023-08-12T14:35:23;96798.88;;;36.58;44.87
49044;BME280;34860;48.066;14.124;2023-08-12T14:38:13;96786.28;;;36.43;44.80
49044;BME280;34860;48.066;14.124;2023-08-12T14:41:01;96792.72;;;36.22;44.79
49044;BME280;34860;48.066;14.124;2023-08-12T14:43:49;96791.66;;;35.98;44.87